createdAt,value
2024-05-09T03:05:03.436Z,13.80
2024-05-09T03:13:47.769Z,13.70
2024-05-09T04:24:59.106Z,13.20
2024-05-09T04:27:34.152Z,13.40
2024-05-09T04:30:04.724Z,13.20
2024-05-09T04:32:38.349Z,12.90
2024-05-09T04:35:09.949Z,13.40
2024-05-09T04:37:40.649Z,13.20
2024-05-09T05:00:40.482Z,13.10
2024-05-09T05:03:16.714Z,13.40
2024-05-09T05:05:56.237Z,13.50
2024-05-09T05:09:20.723Z,13.60
2024-05-09T05:11:50.453Z,13.70
2024-05-09T05:14:28.263Z,13.90
2024-05-09T05:18:02.493Z,14.00
2024-05-09T05:20:37.995Z,14.20
2024-05-09T05:23:13.853Z,14.40
2024-05-09T05:25:42.497Z,14.50
2024-05-09T05:28:13.544Z,14.90
2024-05-09T05:30:42.218Z,14.90
2024-05-09T05:33:14.490Z,15.10
2024-05-09T05:35:45.484Z,15.30
2024-05-09T05:38:16.621Z,15.40
2024-05-09T05:40:44.623Z,15.60
2024-05-09T05:43:20.557Z,15.70
2024-05-09T05:45:49.561Z,15.90
2024-05-09T05:48:20.400Z,16.00
2024-05-09T05:50:51.121Z,16.40
2024-05-09T05:53:21.960Z,16.30
2024-05-09T05:55:51.151Z,16.40
2024-05-09T05:58:22.725Z,16.60
2024-05-09T06:00:53.415Z,16.70
2024-05-09T06:03:24.259Z,17.20
2024-05-09T06:06:47.511Z,17.50
2024-05-09T06:09:15.670Z,17.80
2024-05-09T06:11:47.068Z,18.20
2024-05-09T06:14:15.165Z,18.40
2024-05-09T06:16:46.064Z,19.20
2024-05-09T06:19:15.383Z,19.60
2024-05-09T06:21:50.495Z,19.70
2024-05-09T06:24:20.855Z,20.30
2024-05-09T06:27:03.825Z,20.80
2024-05-09T06:29:31.837Z,21.30
2024-05-09T06:32:03.316Z,21.70
2024-05-09T06:47:40.637Z,23.80
2024-05-09T06:50:38.505Z,24.10
2024-05-09T06:53:15.781Z,24.60
2024-05-09T06:55:47.761Z,25.10
2024-05-09T06:58:19.303Z,25.10
2024-05-09T07:00:53.557Z,25.40
2024-05-09T07:03:21.754Z,25.60
2024-05-09T07:05:53.305Z,25.80
2024-05-09T07:08:21.187Z,25.80
2024-05-09T07:12:07.904Z,25.80
2024-05-09T07:19:11.910Z,25.80
2024-05-09T07:21:42.509Z,26.10
2024-05-09T07:24:10.254Z,26.10
2024-05-09T07:26:40.670Z,26.20
2024-05-09T07:29:08.542Z,26.30
2024-05-09T07:31:38.840Z,26.50
2024-05-09T07:34:12.140Z,26.70
2024-05-09T07:36:42.917Z,26.80
2024-05-09T07:39:11.168Z,27.00
2024-05-09T07:41:41.663Z,26.90
2024-05-09T07:44:09.627Z,27.00
2024-05-09T07:47:47.682Z,27.00
2024-05-09T07:54:38.213Z,27.40
2024-05-09T07:57:09.547Z,27.60
2024-05-09T07:59:40.663Z,27.90
2024-05-09T08:02:11.808Z,28.10
2024-05-09T08:04:42.617Z,28.10
2024-05-09T08:07:16.298Z,28.40
2024-05-09T08:09:46.154Z,28.40
2024-05-09T08:12:17.051Z,28.40
2024-05-09T08:14:45.094Z,28.80
2024-05-09T08:17:15.567Z,29.10
2024-05-09T08:19:46.641Z,29.30
2024-05-09T08:22:17.604Z,29.60
2024-05-09T08:24:47.994Z,29.90
2024-05-09T08:27:47.721Z,30.00
2024-05-09T08:30:22.071Z,30.30
2024-05-09T08:33:00.276Z,30.50
2024-05-09T08:35:30.768Z,30.70
2024-05-09T08:38:02.108Z,30.90
2024-05-09T08:40:35.413Z,30.80
2024-05-09T08:43:12.441Z,30.90
2024-05-09T08:45:44.040Z,31.00
2024-05-09T08:48:16.897Z,31.20
2024-05-09T08:50:52.360Z,31.40
2024-05-09T08:53:23.057Z,31.60
2024-05-09T08:56:01.861Z,31.90
2024-05-09T08:58:55.347Z,32.00
2024-05-09T09:05:23.001Z,32.40
2024-05-09T09:08:19.525Z,32.60
2024-05-09T09:11:57.536Z,32.90
2024-05-09T09:14:29.728Z,33.10
2024-05-09T09:16:57.606Z,33.40
2024-05-09T09:19:30.675Z,33.40
2024-05-09T09:22:06.305Z,33.50
2024-05-09T09:24:39.783Z,33.50
2024-05-09T09:27:08.363Z,33.70
2024-05-09T09:29:41.943Z,33.90
2024-05-09T09:32:11.301Z,34.30
2024-05-09T09:34:41.815Z,34.00
2024-05-09T09:37:10.908Z,33.90
2024-05-09T09:39:49.031Z,33.70
2024-05-09T09:42:18.316Z,33.50
2024-05-09T09:44:58.160Z,33.30
2024-05-09T09:47:39.820Z,33.00
2024-05-09T09:50:14.551Z,32.80
2024-05-09T09:52:45.792Z,32.60
2024-05-09T09:55:20.338Z,32.20
2024-05-09T09:57:49.200Z,31.70
2024-05-09T10:00:24.660Z,31.40
2024-05-09T10:02:58.271Z,31.00
2024-05-09T10:05:30.009Z,30.70
2024-05-09T10:08:00.471Z,30.40
2024-05-09T10:10:36.661Z,30.00
2024-05-09T10:13:05.780Z,29.90
2024-05-09T10:15:47.955Z,29.40
2024-05-09T10:18:28.030Z,29.00
2024-05-09T10:20:59.834Z,28.70
2024-05-09T10:23:32.361Z,28.40
2024-05-09T10:26:05.208Z,28.30
2024-05-09T10:28:38.018Z,28.20
2024-05-09T10:31:09.199Z,28.10
2024-05-09T10:33:41.535Z,27.90
2024-05-09T10:36:12.994Z,27.90
2024-05-09T10:38:53.594Z,27.60
2024-05-09T10:41:24.530Z,27.50
2024-05-09T10:43:55.069Z,27.50
2024-05-09T10:46:49.960Z,27.50
2024-05-09T10:49:28.213Z,27.20
2024-05-09T10:51:56.625Z,27.30
2024-05-09T10:54:26.871Z,27.10
2024-05-09T10:57:00.180Z,27.00
2024-05-09T10:59:36.967Z,26.90
2024-05-09T11:02:05.735Z,26.80
2024-05-09T11:04:38.941Z,26.70
2024-05-09T11:07:10.565Z,26.70
2024-05-09T11:09:42.089Z,26.50
2024-05-09T11:12:12.691Z,26.40
2024-05-09T11:14:43.103Z,26.60
2024-05-09T11:17:10.828Z,26.30
2024-05-09T11:19:44.659Z,26.20
2024-05-09T11:22:13.055Z,26.30
2024-05-09T11:24:43.614Z,26.20
2024-05-09T11:27:14.016Z,26.10
2024-05-09T11:29:47.414Z,26.10
2024-05-09T11:32:16.491Z,26.00
2024-05-09T11:34:46.896Z,26.00
2024-05-09T11:37:14.822Z,25.90
2024-05-09T11:39:45.368Z,25.80
2024-05-09T11:42:17.515Z,25.80
2024-05-09T11:44:47.784Z,25.70
2024-05-09T11:47:15.527Z,25.80
2024-05-09T11:49:46.390Z,25.80
2024-05-09T11:52:14.526Z,25.80
2024-05-09T11:54:45.197Z,25.80
2024-05-09T11:57:18.218Z,25.70
2024-05-09T11:59:45.941Z,25.70
2024-05-09T12:02:16.606Z,25.70
2024-05-09T12:04:46.873Z,25.70
2024-05-09T12:07:17.419Z,25.70
2024-05-09T12:09:45.436Z,25.70
2024-05-09T12:12:18.558Z,25.70
2024-05-09T12:14:46.292Z,25.90
2024-05-09T12:17:16.904Z,25.80
2024-05-09T12:19:45.230Z,25.80
2024-05-09T12:22:15.776Z,25.80
2024-05-09T12:24:43.901Z,25.80
2024-05-09T12:27:14.636Z,25.70
2024-05-09T12:29:46.033Z,25.90
2024-05-09T12:32:16.715Z,25.70
2024-05-09T12:34:45.108Z,25.70
2024-05-09T12:37:15.818Z,25.60
2024-05-09T12:39:43.589Z,25.60
2024-05-09T12:42:25.892Z,25.50
2024-05-09T12:44:57.723Z,25.50
2024-05-09T12:47:29.046Z,25.40
2024-05-09T12:49:57.457Z,25.40
2024-05-09T12:52:28.550Z,25.30
2024-05-09T12:54:56.243Z,25.20
2024-05-09T12:57:26.637Z,25.10
2024-05-09T12:59:54.425Z,25.10
2024-05-09T13:02:27.621Z,25.00
2024-05-09T13:04:56.987Z,24.90
2024-05-09T13:07:52.387Z,25.10
2024-05-09T13:10:28.863Z,24.90
2024-05-09T13:13:02.950Z,25.00
2024-05-09T13:15:34.559Z,25.00
2024-05-09T13:18:08.749Z,25.10
2024-05-09T13:20:37.255Z,25.10
2024-05-09T13:23:08.924Z,25.10
2024-05-09T13:25:37.353Z,25.10
2024-05-09T13:28:08.842Z,25.00
2024-05-09T13:30:40.839Z,25.10
2024-05-09T13:33:15.796Z,25.00
2024-05-09T13:35:47.684Z,25.00
2024-05-09T13:38:21.955Z,25.10
2024-05-09T13:40:50.697Z,25.20
2024-05-09T13:43:22.209Z,25.40
2024-05-09T13:46:02.844Z,25.30
2024-05-09T13:48:45.157Z,25.30
2024-05-09T13:51:13.823Z,25.30
2024-05-09T13:53:44.271Z,25.30
2024-05-09T13:56:14.658Z,25.20
2024-05-09T13:58:46.553Z,25.20
2024-05-09T14:01:14.802Z,25.30
2024-05-09T14:03:48.047Z,25.30
2024-05-09T14:06:16.176Z,25.40
2024-05-09T14:08:46.605Z,25.30
2024-05-09T14:11:14.434Z,25.20
2024-05-09T14:13:44.806Z,25.10
2024-05-09T14:16:13.585Z,25.10
2024-05-09T14:18:44.107Z,25.10
2024-05-09T14:21:14.853Z,25.10
2024-05-09T14:23:45.206Z,25.20
2024-05-09T14:26:13.151Z,25.10
2024-05-09T14:28:43.515Z,25.00
2024-05-09T14:31:11.472Z,25.10
2024-05-09T14:33:42.013Z,25.10
2024-05-09T14:36:09.826Z,25.30
2024-05-09T14:38:42.992Z,25.30
2024-05-09T14:41:13.118Z,25.20
2024-05-09T14:43:43.563Z,25.20
2024-05-09T14:46:11.418Z,25.40
2024-05-09T14:48:42.489Z,25.30
2024-05-09T14:51:10.353Z,25.40
2024-05-09T14:53:43.314Z,25.60
2024-05-09T14:56:11.255Z,25.40
2024-05-09T14:58:41.980Z,25.40
2024-05-09T15:01:09.817Z,25.40
2024-05-09T15:03:40.424Z,25.30
2024-05-09T15:06:08.266Z,25.30
2024-05-09T15:08:38.758Z,25.30
2024-05-09T15:11:09.227Z,25.30
2024-05-09T15:13:40.180Z,25.40
2024-05-09T15:16:08.475Z,25.30
2024-05-09T15:18:40.002Z,25.30
2024-05-09T15:21:09.447Z,25.30
2024-05-09T15:23:40.028Z,25.40
2024-05-09T15:26:10.833Z,25.20
2024-05-09T15:28:43.254Z,25.20
2024-05-09T15:31:11.315Z,25.30
2024-05-09T15:33:42.664Z,25.20
2024-05-09T15:36:10.922Z,25.30
2024-05-09T15:38:42.892Z,25.10
2024-05-09T15:41:14.038Z,25.10
2024-05-09T15:43:45.932Z,25.10
2024-05-09T15:46:20.553Z,25.10
2024-05-09T15:48:56.522Z,25.10
2024-05-09T15:51:25.051Z,25.10
2024-05-09T15:53:56.559Z,25.10
2024-05-09T15:56:27.060Z,25.30
2024-05-09T15:58:57.790Z,25.10
2024-05-09T16:01:25.812Z,25.20
2024-05-09T16:03:56.626Z,25.00
2024-05-09T16:06:24.569Z,25.20
2024-05-09T16:08:55.487Z,25.20
2024-05-09T16:11:23.544Z,25.10
2024-05-09T16:13:57.194Z,25.30
2024-05-09T16:16:26.488Z,25.30
2024-05-09T16:18:57.474Z,25.20
2024-05-09T16:21:25.252Z,25.10
2024-05-09T16:23:56.669Z,25.10
2024-05-09T16:26:24.903Z,25.10
2024-05-09T16:28:58.081Z,25.20
2024-05-09T16:31:27.250Z,25.10
2024-05-09T16:33:57.876Z,25.10
2024-05-09T16:36:25.798Z,25.10
2024-05-09T16:38:56.158Z,25.00
2024-05-09T16:41:24.134Z,25.00
2024-05-09T16:43:57.999Z,25.10
2024-05-09T16:46:27.826Z,25.20
2024-05-09T16:48:58.405Z,25.10
2024-05-09T16:51:26.325Z,25.20
2024-05-09T16:53:56.752Z,25.20
2024-05-09T16:56:25.362Z,25.00
2024-05-09T16:58:58.526Z,25.10
2024-05-09T17:01:26.428Z,25.00
2024-05-09T17:03:57.104Z,25.00
2024-05-09T17:06:26.103Z,25.10
2024-05-09T17:09:04.845Z,25.00
2024-05-09T17:11:36.007Z,25.20
2024-05-09T17:14:09.516Z,24.90
2024-05-09T17:16:40.091Z,24.90
2024-05-09T17:19:10.747Z,24.90
2024-05-09T17:21:38.965Z,24.90
2024-05-09T17:24:09.518Z,24.90
2024-05-09T17:26:37.463Z,24.90
2024-05-09T17:29:12.476Z,25.00
2024-05-09T17:31:40.552Z,25.00
2024-05-09T17:34:11.107Z,24.80
2024-05-09T17:36:38.983Z,24.80
2024-05-09T17:39:09.373Z,24.80
2024-05-09T17:41:37.109Z,24.70
2024-05-09T17:44:10.168Z,24.70
2024-05-09T17:46:38.292Z,24.70
2024-05-09T17:49:08.855Z,24.70
2024-05-09T17:51:37.162Z,24.80
2024-05-09T17:54:07.582Z,24.60
2024-05-09T17:56:35.888Z,24.60
2024-05-09T17:59:09.288Z,24.70
2024-05-09T18:01:41.208Z,24.60
2024-05-09T18:04:12.072Z,24.70
2024-05-09T18:06:40.107Z,24.50
2024-05-09T18:09:10.886Z,24.50
2024-05-09T18:11:40.497Z,24.50
2024-05-09T18:14:11.296Z,24.50
2024-05-09T18:16:42.678Z,24.40
2024-05-09T18:19:13.091Z,24.40
2024-05-09T18:21:40.897Z,24.30
2024-05-09T18:24:12.005Z,24.30
2024-05-09T18:26:40.372Z,24.30
2024-05-09T18:29:12.423Z,24.20
2024-05-09T18:31:43.144Z,24.20
2024-05-09T18:34:14.348Z,24.20
2024-05-09T18:36:42.241Z,24.30
2024-05-09T18:39:12.627Z,24.10
2024-05-09T18:41:40.505Z,24.10
2024-05-09T18:44:11.036Z,24.20
2024-05-09T18:46:39.054Z,24.10
2024-05-09T18:49:12.920Z,24.00
2024-05-09T18:51:40.858Z,24.20
2024-05-09T18:54:11.736Z,24.00
2024-05-09T18:56:40.822Z,24.10
2024-05-09T18:59:11.493Z,24.10
2024-05-09T19:01:42.106Z,24.00
2024-05-09T19:04:18.326Z,23.90
2024-05-09T19:06:46.376Z,23.90
2024-05-09T19:09:17.599Z,23.80
2024-05-09T19:11:45.693Z,23.80
2024-05-09T19:14:16.691Z,23.70
2024-05-09T19:16:44.688Z,23.70
2024-05-09T19:19:18.288Z,23.60
2024-05-09T19:21:46.756Z,23.60
2024-05-09T19:24:17.271Z,23.50
2024-05-09T19:26:45.431Z,23.40
2024-05-09T19:29:15.717Z,23.30
2024-05-09T19:31:43.561Z,23.20
2024-05-09T19:34:13.918Z,23.20
2024-05-09T19:36:44.417Z,23.10
2024-05-09T19:39:14.900Z,23.00
2024-05-09T19:41:42.824Z,22.90
2024-05-09T19:44:13.209Z,23.00
2024-05-09T19:46:42.135Z,22.70
2024-05-09T19:49:13.175Z,22.60
2024-05-09T19:51:44.179Z,22.70
2024-05-09T19:54:14.815Z,22.50
2024-05-09T19:56:45.184Z,22.40
2024-05-09T19:59:15.631Z,22.30
2024-05-09T20:01:43.459Z,22.30
2024-05-09T20:04:14.082Z,22.40
2024-05-09T20:06:44.494Z,22.30
2024-05-09T20:09:14.952Z,22.10
2024-05-09T20:11:42.741Z,22.00
2024-05-09T20:14:14.318Z,21.90
2024-05-09T20:16:43.998Z,21.90
2024-05-09T20:19:14.889Z,21.80
2024-05-09T20:21:45.685Z,21.60
2024-05-09T20:24:16.036Z,21.60
2024-05-09T20:26:43.678Z,21.50
2024-05-09T20:29:13.987Z,21.50
2024-05-09T20:31:41.934Z,21.40
2024-05-09T20:34:12.678Z,21.50
2024-05-09T20:36:40.607Z,21.30
2024-05-09T20:39:13.636Z,21.20
2024-05-09T20:41:43.305Z,21.10
2024-05-09T20:44:13.592Z,21.00
2024-05-09T20:46:41.477Z,21.00
2024-05-09T20:49:11.831Z,21.10
2024-05-09T20:51:39.669Z,20.90
2024-05-09T20:54:09.990Z,20.80
2024-05-09T20:56:40.359Z,20.80
2024-05-09T20:59:10.714Z,20.70
2024-05-09T21:01:38.519Z,20.70
2024-05-09T21:04:09.450Z,20.60
2024-05-09T21:06:39.436Z,20.50
2024-05-09T21:09:09.740Z,20.60
2024-05-09T21:11:40.176Z,20.40
2024-05-09T21:14:10.731Z,20.30
2024-05-09T21:16:38.803Z,20.30
2024-05-09T21:19:09.209Z,20.20
2024-05-09T21:21:39.630Z,20.10
2024-05-09T21:24:10.454Z,20.00
2024-05-09T21:26:40.867Z,20.00
2024-05-09T21:29:11.681Z,19.90
2024-05-09T21:31:39.367Z,19.80
2024-05-09T21:34:09.988Z,19.80
2024-05-09T21:36:37.935Z,19.70
2024-05-09T21:39:08.222Z,19.70
2024-05-09T21:41:36.362Z,19.60
2024-05-09T21:44:09.298Z,19.60
2024-05-09T21:46:37.077Z,19.50
2024-05-09T21:49:07.558Z,19.50
2024-05-09T21:51:35.295Z,19.40
2024-05-09T21:54:05.697Z,19.40
2024-05-09T21:56:33.346Z,19.30
2024-05-09T21:59:03.640Z,19.30
2024-05-09T22:01:35.850Z,19.40
2024-05-09T22:04:06.508Z,19.10
2024-05-09T22:06:34.731Z,19.10
2024-05-09T22:09:05.712Z,19.00
2024-05-09T22:11:33.937Z,18.90
2024-05-09T22:14:04.424Z,18.90
2024-05-09T22:16:34.891Z,19.00
2024-05-09T22:19:05.859Z,18.80
2024-05-09T22:21:58.204Z,18.70
2024-05-09T22:24:28.677Z,18.70
2024-05-09T22:26:56.393Z,18.60
2024-05-09T22:29:26.728Z,18.70
2024-05-09T22:31:57.462Z,18.60
2024-05-09T22:34:28.224Z,18.50
2024-05-09T22:36:56.078Z,18.40
2024-05-09T22:39:26.695Z,18.50
2024-05-09T22:41:54.434Z,18.30
2024-05-09T22:44:24.856Z,18.20
2024-05-09T22:46:52.772Z,18.10
2024-05-09T22:49:25.732Z,18.10
2024-05-09T22:51:53.661Z,18.00
2024-05-09T22:54:24.249Z,18.00
2024-05-09T22:56:56.366Z,17.90
2024-05-09T22:59:26.722Z,17.90
2024-05-09T23:01:54.500Z,17.90
2024-05-09T23:04:27.964Z,17.80
2024-05-09T23:06:55.772Z,17.80
2024-05-09T23:09:26.182Z,17.80
2024-05-09T23:11:54.961Z,17.70
2024-05-09T23:14:25.484Z,17.70
2024-05-09T23:16:53.353Z,17.70
2024-05-09T23:19:23.756Z,17.60
2024-05-09T23:21:54.355Z,17.60
2024-05-09T23:24:24.666Z,17.60
2024-05-09T23:26:52.401Z,17.60
2024-05-09T23:29:22.732Z,17.60
2024-05-09T23:31:50.425Z,17.60
2024-05-09T23:34:21.280Z,17.60
2024-05-09T23:36:49.147Z,17.50
2024-05-09T23:39:22.708Z,17.60
2024-05-09T23:41:50.354Z,17.50
2024-05-09T23:44:22.130Z,17.50
2024-05-09T23:46:49.874Z,17.70
2024-05-09T23:49:20.669Z,17.50
2024-05-09T23:51:48.813Z,17.50
2024-05-09T23:54:22.044Z,17.50
2024-05-09T23:56:49.748Z,17.50
2024-05-09T23:59:20.045Z,17.50
